createdAt,value
2023-03-24T00:00:00.196Z,16.60
2023-03-24T00:02:02.068Z,16.70
2023-03-24T00:04:04.463Z,16.60
2023-03-24T00:06:07.338Z,16.60
2023-03-24T00:08:09.066Z,16.60
2023-03-24T00:10:12.465Z,16.60
2023-03-24T00:12:14.386Z,16.60
2023-03-24T00:14:16.100Z,16.60
2023-03-24T00:16:19.403Z,16.60
2023-03-24T00:18:22.539Z,16.60
2023-03-24T00:20:26.118Z,16.60
2023-03-24T00:22:28.478Z,16.60
2023-03-24T00:24:30.266Z,16.60
2023-03-24T00:26:32.443Z,16.60
2023-03-24T00:28:36.977Z,16.60
2023-03-24T00:30:41.185Z,16.60
2023-03-24T00:32:42.964Z,16.60
2023-03-24T00:34:44.621Z,16.60
2023-03-24T00:36:46.445Z,16.60
2023-03-24T00:38:48.554Z,16.60
2023-03-24T00:40:51.172Z,16.60
2023-03-24T00:42:53.051Z,16.60
2023-03-24T00:44:54.917Z,16.60
2023-03-24T00:46:56.728Z,16.60
2023-03-24T00:49:03.502Z,16.60
2023-03-24T00:51:08.036Z,16.60
2023-03-24T00:53:10.152Z,16.50
2023-03-24T00:55:15.828Z,16.50
2023-03-24T00:57:21.835Z,16.50
2023-03-24T00:59:23.584Z,16.50
2023-03-24T01:01:26.174Z,16.50
2023-03-24T01:03:28.124Z,16.50
2023-03-24T01:05:30.670Z,16.50
2023-03-24T01:07:33.532Z,16.50
2023-03-24T01:09:36.258Z,16.50
2023-03-24T01:11:39.978Z,16.50
2023-03-24T01:13:42.535Z,16.40
2023-03-24T01:15:45.252Z,16.40
2023-03-24T01:17:48.737Z,16.40
2023-03-24T01:19:50.590Z,16.40
2023-03-24T01:21:54.501Z,16.40
2023-03-24T01:23:56.252Z,16.40
2023-03-24T01:25:57.931Z,16.40
2023-03-24T01:27:59.626Z,16.40
2023-03-24T01:30:02.233Z,16.40
2023-03-24T01:32:04.004Z,16.40
2023-03-24T01:34:05.843Z,16.40
2023-03-24T01:36:07.969Z,16.30
2023-03-24T01:38:11.550Z,16.30
2023-03-24T01:40:32.040Z,16.30
2023-03-24T01:42:33.686Z,16.30
2023-03-24T01:44:37.015Z,16.30
2023-03-24T01:46:38.798Z,16.30
2023-03-24T01:48:49.546Z,16.30
2023-03-24T01:51:00.063Z,16.30
2023-03-24T01:53:01.758Z,16.30
2023-03-24T01:55:08.185Z,16.30
2023-03-24T01:57:12.795Z,16.30
2023-03-24T01:59:18.694Z,16.30
2023-03-24T02:01:42.282Z,16.30
2023-03-24T02:04:05.709Z,16.30
2023-03-24T02:06:08.545Z,16.30
2023-03-24T02:08:22.132Z,16.30
2023-03-24T02:10:24.118Z,16.30
2023-03-24T02:12:27.038Z,16.30
2023-03-24T02:14:29.827Z,16.30
2023-03-24T02:16:32.159Z,16.30
2023-03-24T02:18:49.522Z,16.30
2023-03-24T02:21:09.894Z,16.30
2023-03-24T02:23:44.382Z,16.30
2023-03-24T02:25:57.777Z,16.30
2023-03-24T02:27:59.474Z,16.30
2023-03-24T02:30:19.662Z,16.30
2023-03-24T02:32:21.441Z,16.30
2023-03-24T02:34:23.094Z,16.30
2023-03-24T02:36:33.193Z,16.30
2023-03-24T02:38:53.538Z,16.30
2023-03-24T02:41:04.247Z,16.30
2023-03-24T02:43:21.460Z,16.30
2023-03-24T02:45:41.627Z,16.30
2023-03-24T02:47:46.215Z,16.30
2023-03-24T02:49:47.963Z,16.30
2023-03-24T02:51:58.102Z,16.30
2023-03-24T02:54:05.804Z,16.30
2023-03-24T02:56:30.060Z,16.30
2023-03-24T02:58:42.099Z,16.30
2023-03-24T03:00:49.626Z,16.30
2023-03-24T03:03:26.061Z,16.30
2023-03-24T03:05:35.654Z,16.30
2023-03-24T03:07:37.754Z,16.30
2023-03-24T03:09:41.584Z,16.30
2023-03-24T03:11:46.250Z,16.30
2023-03-24T03:13:56.253Z,16.30
2023-03-24T03:15:59.940Z,16.30
2023-03-24T03:18:07.247Z,16.30
2023-03-24T03:20:11.070Z,16.40
2023-03-24T03:22:17.513Z,16.40
2023-03-24T03:24:32.287Z,16.40
2023-03-24T03:26:34.405Z,16.40
2023-03-24T03:28:38.635Z,16.30
2023-03-24T03:30:42.220Z,16.40
2023-03-24T03:32:54.349Z,16.40
2023-03-24T03:35:01.012Z,16.40
2023-03-24T03:37:22.221Z,16.40
2023-03-24T03:39:27.876Z,16.30
2023-03-24T03:41:31.397Z,16.40
2023-03-24T03:43:33.317Z,16.40
2023-03-24T03:45:35.579Z,16.40
2023-03-24T03:47:37.453Z,16.40
2023-03-24T03:49:39.227Z,16.40
2023-03-24T03:51:41.296Z,16.40
2023-03-24T03:53:51.536Z,16.40
2023-03-24T03:55:53.685Z,16.40
2023-03-24T03:57:55.627Z,16.40
2023-03-24T04:00:26.648Z,16.40
2023-03-24T04:02:57.070Z,16.40
2023-03-24T04:05:06.869Z,16.40
2023-03-24T04:07:14.148Z,16.40
2023-03-24T04:09:27.360Z,16.40
2023-03-24T04:11:34.227Z,16.40
2023-03-24T04:14:00.200Z,16.40
2023-03-24T04:16:09.577Z,16.40
2023-03-24T04:18:44.476Z,16.50
2023-03-24T04:20:52.255Z,16.50
2023-03-24T04:22:54.287Z,16.50
2023-03-24T04:24:57.455Z,16.50
2023-03-24T04:27:06.971Z,16.50
2023-03-24T04:29:18.549Z,16.50
2023-03-24T04:31:25.940Z,16.60
2023-03-24T04:33:35.142Z,16.60
2023-03-24T04:35:42.301Z,16.60
2023-03-24T04:37:44.912Z,16.60
2023-03-24T04:39:59.041Z,16.70
2023-03-24T04:42:04.282Z,16.70
2023-03-24T04:44:06.299Z,16.70
2023-03-24T04:46:18.047Z,16.80
2023-03-24T04:48:33.946Z,16.70
2023-03-24T04:50:48.081Z,16.70
2023-03-24T04:52:53.759Z,16.70
2023-03-24T04:54:56.308Z,16.70
2023-03-24T04:57:01.622Z,16.70
2023-03-24T04:59:07.352Z,16.70
2023-03-24T05:01:09.888Z,16.70
2023-03-24T05:03:15.515Z,16.70
2023-03-24T05:05:17.158Z,16.70
2023-03-24T05:07:21.476Z,16.70
2023-03-24T05:09:25.812Z,16.70
2023-03-24T05:11:27.661Z,16.60
2023-03-24T05:13:37.114Z,16.70
2023-03-24T05:15:39.469Z,16.70
2023-03-24T05:17:54.922Z,16.70
2023-03-24T05:19:59.356Z,16.70
2023-03-24T05:22:01.296Z,16.70
2023-03-24T05:24:03.200Z,16.70
2023-03-24T05:26:05.134Z,16.70
2023-03-24T05:28:12.885Z,16.70
2023-03-24T05:30:16.526Z,16.70
2023-03-24T05:32:18.692Z,16.70
2023-03-24T05:34:22.098Z,16.70
2023-03-24T05:36:41.179Z,16.70
2023-03-24T05:38:43.754Z,16.70
2023-03-24T05:40:45.474Z,16.60
2023-03-24T05:42:49.317Z,16.60
2023-03-24T05:44:51.340Z,16.60
2023-03-24T05:47:00.335Z,16.60
2023-03-24T05:49:02.587Z,16.60
2023-03-24T05:51:09.369Z,16.60
2023-03-24T05:53:11.310Z,16.60
2023-03-24T05:55:40.158Z,16.60
2023-03-24T05:57:55.655Z,16.50
2023-03-24T06:00:15.861Z,16.50
2023-03-24T06:02:25.750Z,16.50
2023-03-24T06:04:35.989Z,16.50
2023-03-24T06:06:45.530Z,16.50
2023-03-24T06:08:49.375Z,16.50
2023-03-24T06:10:53.450Z,16.50
2023-03-24T06:12:55.873Z,16.50
2023-03-24T06:14:58.828Z,16.50
2023-03-24T06:17:00.936Z,16.40
2023-03-24T06:19:02.913Z,16.50
2023-03-24T06:21:31.842Z,16.40
2023-03-24T06:23:35.561Z,16.40
2023-03-24T06:25:44.389Z,16.40
2023-03-24T06:28:03.859Z,16.40
2023-03-24T06:30:08.482Z,16.40
2023-03-24T06:32:10.700Z,16.40
2023-03-24T06:34:16.421Z,16.40
2023-03-24T06:36:23.552Z,16.50
2023-03-24T06:38:25.337Z,16.40
2023-03-24T06:40:27.271Z,16.40
2023-03-24T06:42:32.649Z,16.50
2023-03-24T06:44:34.436Z,16.40
2023-03-24T06:46:36.397Z,16.40
2023-03-24T06:48:39.059Z,16.40
2023-03-24T06:50:42.866Z,16.40
2023-03-24T06:52:46.044Z,16.40
2023-03-24T06:54:50.931Z,16.40
2023-03-24T06:56:52.884Z,16.30
2023-03-24T06:58:56.612Z,16.30
2023-03-24T07:01:05.159Z,16.30
2023-03-24T07:03:08.477Z,16.30
2023-03-24T07:05:12.364Z,16.30
2023-03-24T07:09:29.274Z,16.40
2023-03-24T07:11:31.617Z,16.30
2023-03-24T07:13:34.808Z,16.30
2023-03-24T07:15:39.389Z,16.30
2023-03-24T07:17:42.041Z,16.30
2023-03-24T07:20:06.856Z,16.30
2023-03-24T07:22:22.174Z,16.30
2023-03-24T07:24:42.270Z,16.30
2023-03-24T07:27:03.961Z,16.30
2023-03-24T07:29:06.754Z,16.30
2023-03-24T07:31:24.549Z,16.20
2023-03-24T07:33:33.280Z,16.30
2023-03-24T07:35:35.234Z,16.30
2023-03-24T07:37:37.404Z,16.30
2023-03-24T07:39:39.175Z,16.20
2023-03-24T07:41:41.132Z,16.30
2023-03-24T07:43:52.611Z,16.20
2023-03-24T07:46:07.760Z,16.20
2023-03-24T07:48:11.142Z,16.20
2023-03-24T07:50:13.965Z,16.20
2023-03-24T07:52:15.699Z,16.30
2023-03-24T07:54:20.408Z,16.20
2023-03-24T07:56:24.008Z,16.20
2023-03-24T07:58:30.880Z,16.30
2023-03-24T08:00:49.878Z,16.20
2023-03-24T08:03:02.173Z,16.20
2023-03-24T08:05:33.292Z,16.20
2023-03-24T08:07:53.497Z,16.30
2023-03-24T08:09:55.334Z,16.30
2023-03-24T08:11:58.919Z,16.30
2023-03-24T08:14:02.246Z,16.40
2023-03-24T08:16:07.014Z,16.30
2023-03-24T08:18:08.748Z,16.20
2023-03-24T08:20:14.909Z,16.30
2023-03-24T08:22:17.138Z,16.30
2023-03-24T08:24:19.917Z,16.30
2023-03-24T08:26:22.638Z,16.30
2023-03-24T08:28:24.293Z,16.30
2023-03-24T08:30:26.595Z,16.30
2023-03-24T08:32:28.377Z,16.30
2023-03-24T08:34:30.066Z,16.30
2023-03-24T08:36:32.210Z,16.30
2023-03-24T08:38:34.164Z,16.30
2023-03-24T08:40:36.785Z,16.30
2023-03-24T08:42:38.551Z,16.30
2023-03-24T08:44:40.301Z,16.30
2023-03-24T08:46:42.359Z,16.30
2023-03-24T08:48:44.152Z,16.30
2023-03-24T08:50:46.057Z,16.30
2023-03-24T08:55:25.596Z,16.30
2023-03-24T08:57:27.535Z,16.30
2023-03-24T08:59:29.341Z,16.30
2023-03-24T09:01:45.333Z,16.30
2023-03-24T09:03:56.976Z,16.30
2023-03-24T09:09:14.925Z,16.30
2023-03-24T09:11:53.912Z,16.30
2023-03-24T09:14:19.205Z,16.30
2023-03-24T09:26:04.890Z,16.30
2023-03-24T09:28:06.842Z,16.30
2023-03-24T09:30:09.587Z,16.30
2023-03-24T09:32:11.287Z,16.30
2023-03-24T09:34:12.956Z,16.30
2023-03-24T09:36:14.633Z,16.30
2023-03-24T09:38:16.344Z,16.30
2023-03-24T09:40:20.617Z,16.30
2023-03-24T09:42:24.036Z,16.30
2023-03-24T09:44:28.991Z,16.30
2023-03-24T09:46:43.047Z,16.30
2023-03-24T09:48:51.130Z,16.30
2023-03-24T09:51:13.467Z,16.30
2023-03-24T09:53:24.806Z,16.30
2023-03-24T09:55:28.110Z,16.40
2023-03-24T09:57:34.352Z,16.40
2023-03-24T09:59:37.691Z,16.40
2023-03-24T10:01:39.450Z,16.40
2023-03-24T10:03:42.238Z,16.40
2023-03-24T10:05:47.802Z,16.40
2023-03-24T10:07:55.313Z,16.30
2023-03-24T10:09:59.304Z,16.40
2023-03-24T10:12:03.764Z,16.40
2023-03-24T10:14:11.636Z,16.40
2023-03-24T10:16:22.603Z,16.40
2023-03-24T10:18:36.081Z,16.40
2023-03-24T10:20:47.617Z,16.40
2023-03-24T10:22:49.271Z,16.40
2023-03-24T10:24:55.423Z,16.40
2023-03-24T10:27:08.994Z,16.40
2023-03-24T10:29:13.653Z,16.40
2023-03-24T10:31:16.558Z,16.40
2023-03-24T10:33:18.319Z,16.40
2023-03-24T10:35:25.126Z,16.40
2023-03-24T10:37:29.156Z,16.40
2023-03-24T10:39:42.027Z,16.40
2023-03-24T10:41:46.330Z,16.40
2023-03-24T10:43:49.450Z,16.40
2023-03-24T10:45:56.432Z,16.30
2023-03-24T10:47:59.740Z,16.30
2023-03-24T10:50:14.400Z,16.40
2023-03-24T10:52:17.080Z,16.30
2023-03-24T10:54:23.440Z,16.30
2023-03-24T10:56:45.146Z,16.30
2023-03-24T10:58:47.484Z,16.30
2023-03-24T11:00:49.547Z,16.30
2023-03-24T11:02:56.708Z,16.30
2023-03-24T11:05:03.608Z,16.30
2023-03-24T11:07:07.412Z,16.30
2023-03-24T11:09:19.841Z,16.30
2023-03-24T11:11:24.274Z,16.30
2023-03-24T11:13:31.081Z,16.30
2023-03-24T11:15:34.178Z,16.30
2023-03-24T11:17:36.046Z,16.30
2023-03-24T11:19:37.942Z,16.30
2023-03-24T11:21:39.944Z,16.30
2023-03-24T11:23:45.664Z,16.30
2023-03-24T11:25:53.141Z,16.40
2023-03-24T11:28:00.177Z,16.30
2023-03-24T11:30:02.036Z,16.30
2023-03-24T11:32:10.984Z,16.30
2023-03-24T11:34:41.992Z,16.30
2023-03-24T11:36:47.576Z,16.30
2023-03-24T11:38:58.422Z,16.30
2023-03-24T11:41:07.414Z,16.30
2023-03-24T11:43:19.342Z,16.30
2023-03-24T11:45:47.783Z,16.30
2023-03-24T11:47:51.174Z,16.30
2023-03-24T11:49:55.862Z,16.40
2023-03-24T11:51:57.972Z,16.30
2023-03-24T11:54:02.717Z,16.30
2023-03-24T11:56:04.600Z,16.30
2023-03-24T11:58:15.591Z,16.40
2023-03-24T12:00:18.381Z,16.40
2023-03-24T12:02:43.583Z,16.40
2023-03-24T12:04:59.718Z,16.40
2023-03-24T12:07:20.004Z,16.40
2023-03-24T12:09:45.141Z,16.40
2023-03-24T12:11:50.210Z,16.50
2023-03-24T12:13:52.685Z,16.50
2023-03-24T12:16:15.550Z,16.50
2023-03-24T12:18:29.646Z,16.50
2023-03-24T12:20:37.121Z,16.50
2023-03-24T12:23:14.482Z,16.60
2023-03-24T12:25:29.318Z,16.60
2023-03-24T12:27:42.186Z,16.60
2023-03-24T12:29:59.281Z,16.60
2023-03-24T12:32:19.149Z,16.60
2023-03-24T12:34:23.814Z,16.60
2023-03-24T12:36:31.935Z,16.60
2023-03-24T12:38:39.598Z,16.70
2023-03-24T12:40:53.446Z,16.70
2023-03-24T12:43:02.020Z,16.70
2023-03-24T12:45:04.013Z,16.70
2023-03-24T12:47:24.405Z,16.80
2023-03-24T12:49:29.099Z,16.70
2023-03-24T12:51:33.625Z,16.70
2023-03-24T12:53:41.875Z,16.70
2023-03-24T12:55:47.806Z,16.70
2023-03-24T12:58:10.404Z,16.80
2023-03-24T13:00:20.701Z,16.80
2023-03-24T13:02:25.721Z,16.80
2023-03-24T13:04:35.458Z,16.80
2023-03-24T13:06:41.004Z,16.90
2023-03-24T13:08:45.780Z,16.90
2023-03-24T13:10:53.746Z,16.90
2023-03-24T13:13:01.968Z,17.00
2023-03-24T13:15:04.018Z,17.00
2023-03-24T13:17:12.990Z,17.10
2023-03-24T13:19:18.038Z,17.10
2023-03-24T13:21:21.448Z,17.10
2023-03-24T13:23:23.210Z,17.10
2023-03-24T13:25:51.469Z,17.20
2023-03-24T13:27:54.112Z,17.20
2023-03-24T13:29:55.892Z,17.20
2023-03-24T13:32:24.253Z,17.20
2023-03-24T13:34:29.420Z,17.30
2023-03-24T13:36:35.048Z,17.30
2023-03-24T13:38:46.250Z,17.40
2023-03-24T13:40:52.323Z,17.40
2023-03-24T13:42:54.074Z,17.50
2023-03-24T13:44:56.084Z,17.50
2023-03-24T13:47:05.554Z,17.50
2023-03-24T13:49:11.603Z,17.50
2023-03-24T13:51:17.319Z,17.50
2023-03-24T13:53:28.427Z,17.60
2023-03-24T13:55:31.393Z,17.60
2023-03-24T13:57:33.185Z,17.60
2023-03-24T13:59:38.009Z,17.60
2023-03-24T14:01:42.153Z,17.60
2023-03-24T14:04:06.735Z,17.60
2023-03-24T14:06:09.684Z,17.60
2023-03-24T14:08:13.878Z,17.60
2023-03-24T14:10:16.022Z,17.60
2023-03-24T14:12:18.723Z,17.70
2023-03-24T14:14:22.556Z,17.70
2023-03-24T14:16:41.994Z,17.80
2023-03-24T14:18:43.955Z,17.80
2023-03-24T14:20:57.881Z,17.90
2023-03-24T14:22:59.734Z,17.90
2023-03-24T14:25:07.012Z,18.00
2023-03-24T14:27:27.460Z,18.00
2023-03-24T14:30:01.581Z,18.10
2023-03-24T14:32:17.282Z,18.10
2023-03-24T14:34:25.408Z,18.10
2023-03-24T14:36:39.474Z,18.10
2023-03-24T14:38:43.160Z,18.10
2023-03-24T14:40:46.524Z,18.10
2023-03-24T14:42:48.447Z,18.10
2023-03-24T14:44:51.247Z,18.10
2023-03-24T14:46:58.294Z,18.20
2023-03-24T14:49:11.912Z,18.20
2023-03-24T14:51:43.470Z,18.20
2023-03-24T14:53:45.778Z,18.30
2023-03-24T14:55:48.261Z,18.30
2023-03-24T14:58:00.463Z,18.30
2023-03-24T15:00:14.818Z,18.40
2023-03-24T15:02:39.612Z,18.40
2023-03-24T15:04:41.385Z,18.40
2023-03-24T15:06:47.221Z,18.40
2023-03-24T15:08:53.005Z,18.40
2023-03-24T15:10:58.177Z,18.40
2023-03-24T15:12:59.999Z,18.40
2023-03-24T15:15:02.388Z,18.30
2023-03-24T15:17:08.746Z,18.40
2023-03-24T15:19:19.161Z,18.30
2023-03-24T15:21:33.247Z,18.30
2023-03-24T15:23:35.101Z,18.30
2023-03-24T15:25:41.430Z,18.20
2023-03-24T15:27:48.973Z,18.20
2023-03-24T15:29:57.735Z,18.20
2023-03-24T15:31:59.646Z,18.20
2023-03-24T15:34:23.738Z,18.20
2023-03-24T15:36:26.075Z,18.20
2023-03-24T15:38:28.830Z,18.20
2023-03-24T15:40:31.748Z,18.20
2023-03-24T15:42:39.977Z,18.30
2023-03-24T15:44:41.770Z,18.30
2023-03-24T15:46:43.936Z,18.30
2023-03-24T15:48:46.149Z,18.40
2023-03-24T15:50:59.272Z,18.60
2023-03-24T15:53:23.519Z,18.60
2023-03-24T15:55:36.007Z,18.70
2023-03-24T15:57:40.585Z,18.80
2023-03-24T15:59:44.418Z,18.90
2023-03-24T16:01:50.344Z,19.00
2023-03-24T16:03:52.715Z,19.10
2023-03-24T16:05:55.768Z,19.10
2023-03-24T16:07:57.588Z,19.30
2023-03-24T16:10:05.223Z,19.30
2023-03-24T16:12:10.724Z,19.40
2023-03-24T16:14:15.623Z,19.30
2023-03-24T16:16:27.909Z,19.40
2023-03-24T16:18:32.263Z,19.30
2023-03-24T16:20:33.987Z,19.30
2023-03-24T16:22:35.721Z,19.30
2023-03-24T16:24:37.411Z,19.30
2023-03-24T16:26:39.129Z,19.30
2023-03-24T16:28:40.957Z,19.30
2023-03-24T16:30:43.251Z,19.10
2023-03-24T16:32:45.056Z,19.10
2023-03-24T16:34:46.950Z,19.00
2023-03-24T16:36:49.536Z,19.00
2023-03-24T16:38:51.367Z,18.90
2023-03-24T16:40:54.071Z,18.90
2023-03-24T16:42:56.061Z,18.80
2023-03-24T16:44:57.801Z,18.80
2023-03-24T16:46:59.635Z,18.70
2023-03-24T16:49:02.375Z,18.70
2023-03-24T16:51:04.225Z,18.60
2023-03-24T16:53:06.440Z,18.60
2023-03-24T16:55:08.310Z,18.60
2023-03-24T16:57:10.293Z,18.50
2023-03-24T16:59:14.840Z,18.50
2023-03-24T17:01:26.388Z,18.40
2023-03-24T17:03:29.766Z,18.40
2023-03-24T17:05:37.249Z,18.40
2023-03-24T17:07:38.996Z,18.30
2023-03-24T17:09:40.643Z,18.30
2023-03-24T17:11:44.048Z,18.20
2023-03-24T17:13:45.741Z,18.20
2023-03-24T17:15:47.588Z,18.10
2023-03-24T17:17:49.487Z,18.10
2023-03-24T17:19:51.745Z,18.10
2023-03-24T17:21:56.790Z,18.00
2023-03-24T17:23:58.569Z,18.00
2023-03-24T17:26:00.281Z,18.00
2023-03-24T17:28:02.106Z,18.00
2023-03-24T17:30:04.181Z,18.00
2023-03-24T17:32:05.972Z,17.90
2023-03-24T17:34:21.221Z,17.90
2023-03-24T17:36:23.745Z,17.90
2023-03-24T17:38:25.941Z,17.90
2023-03-24T17:40:27.690Z,17.90
2023-03-24T17:42:29.390Z,17.80
2023-03-24T17:44:32.370Z,17.80
2023-03-24T17:46:34.190Z,17.90
2023-03-24T17:48:37.083Z,17.80
2023-03-24T17:50:38.783Z,17.80
2023-03-24T17:52:43.219Z,17.70
2023-03-24T17:54:45.911Z,17.70
2023-03-24T17:56:54.447Z,17.70
2023-03-24T17:58:58.986Z,17.70
2023-03-24T18:01:07.883Z,17.70
2023-03-24T18:03:10.274Z,17.60
2023-03-24T18:05:12.703Z,17.60
2023-03-24T18:07:14.658Z,17.60
2023-03-24T18:09:18.361Z,17.60
2023-03-24T18:11:20.140Z,17.60
2023-03-24T18:13:22.768Z,17.60
2023-03-24T18:15:25.650Z,17.50
2023-03-24T18:17:27.675Z,17.50
2023-03-24T18:19:29.389Z,17.50
2023-03-24T18:21:31.152Z,17.50
2023-03-24T18:23:36.863Z,17.40
2023-03-24T18:25:38.777Z,17.40
2023-03-24T18:27:41.498Z,17.40
2023-03-24T18:29:43.269Z,17.40
2023-03-24T18:31:45.205Z,17.30
2023-03-24T18:33:51.175Z,17.30
2023-03-24T18:35:53.418Z,17.30
2023-03-24T18:37:55.273Z,17.30
2023-03-24T18:39:56.938Z,17.30
2023-03-24T18:41:58.594Z,17.30
2023-03-24T18:44:00.594Z,17.20
2023-03-24T18:46:02.646Z,17.20
2023-03-24T18:48:04.629Z,17.20
2023-03-24T18:50:06.709Z,17.20
2023-03-24T18:52:09.578Z,17.20
2023-03-24T18:54:12.420Z,17.10
2023-03-24T18:56:14.587Z,17.20
2023-03-24T18:58:17.277Z,17.10
2023-03-24T19:00:20.300Z,17.10
2023-03-24T19:02:22.120Z,17.10
2023-03-24T19:04:24.030Z,17.10
2023-03-24T19:06:31.552Z,17.00
2023-03-24T19:08:34.335Z,17.00
2023-03-24T19:10:37.010Z,17.00
2023-03-24T19:12:38.823Z,17.00
2023-03-24T19:14:42.085Z,16.90
2023-03-24T19:16:43.868Z,16.90
2023-03-24T19:18:45.871Z,16.90
2023-03-24T19:20:47.631Z,16.90
2023-03-24T19:22:49.459Z,16.90
2023-03-24T19:24:51.375Z,16.90
2023-03-24T19:26:53.705Z,16.80
2023-03-24T19:28:55.510Z,16.80
2023-03-24T19:30:58.215Z,16.80
2023-03-24T19:32:59.993Z,16.80
2023-03-24T19:35:04.061Z,16.80
2023-03-24T19:37:05.968Z,16.80
2023-03-24T19:39:13.690Z,16.70
2023-03-24T19:41:16.213Z,16.70
2023-03-24T19:43:18.473Z,16.70
2023-03-24T19:45:23.487Z,16.70
2023-03-24T19:47:25.302Z,16.70
2023-03-24T19:49:32.385Z,16.70
2023-03-24T19:51:34.247Z,16.70
2023-03-24T19:53:36.190Z,16.70
2023-03-24T19:55:38.250Z,16.60
2023-03-24T19:57:40.474Z,16.60
2023-03-24T19:59:46.578Z,16.60
2023-03-24T20:01:52.924Z,16.60
2023-03-24T20:03:56.194Z,16.60
2023-03-24T20:06:19.676Z,16.50
2023-03-24T20:08:49.300Z,16.50
2023-03-24T20:11:19.170Z,16.50
2023-03-24T20:26:18.651Z,16.30
2023-03-24T20:28:21.494Z,16.30
2023-03-24T20:30:24.191Z,16.20
2023-03-24T20:32:26.042Z,16.20
2023-03-24T20:34:27.886Z,16.20
2023-03-24T20:36:29.670Z,16.10
2023-03-24T20:38:31.469Z,16.10
2023-03-24T20:40:33.313Z,16.10
2023-03-24T20:42:35.110Z,16.10
2023-03-24T20:44:36.791Z,16.10
2023-03-24T20:46:38.685Z,16.10
2023-03-24T20:48:40.528Z,16.00
2023-03-24T20:50:43.439Z,16.00
2023-03-24T20:52:46.040Z,16.10
2023-03-24T20:54:47.741Z,16.00
2023-03-24T20:56:52.535Z,16.00
2023-03-24T20:58:54.276Z,16.00
2023-03-24T21:00:56.407Z,15.90
2023-03-24T21:02:58.196Z,15.90
2023-03-24T21:04:59.987Z,15.90
2023-03-24T21:07:01.888Z,15.90
2023-03-24T21:09:04.238Z,15.90
2023-03-24T21:11:06.146Z,15.80
2023-03-24T21:13:08.724Z,15.80
2023-03-24T21:15:10.550Z,15.80
2023-03-24T21:17:12.943Z,15.80
2023-03-24T21:19:15.121Z,15.70
2023-03-24T21:21:17.051Z,15.70
2023-03-24T21:23:19.137Z,15.60
2023-03-24T21:25:25.035Z,15.60
2023-03-24T21:27:27.239Z,15.50
2023-03-24T21:29:29.020Z,15.50
2023-03-24T21:31:30.779Z,15.50
2023-03-24T21:33:32.541Z,15.50
2023-03-24T21:35:34.345Z,15.40
2023-03-24T21:37:36.115Z,15.40
2023-03-24T21:39:37.902Z,15.30
2023-03-24T21:41:39.714Z,15.40
2023-03-24T21:43:42.048Z,15.30
2023-03-24T21:45:46.037Z,15.30
2023-03-24T21:47:48.845Z,15.30
2023-03-24T21:49:50.701Z,15.20
2023-03-24T21:51:55.160Z,15.20
2023-03-24T21:53:59.402Z,15.20
2023-03-24T21:56:04.584Z,15.20
2023-03-24T21:58:06.585Z,15.10
2023-03-24T22:00:14.385Z,15.20
2023-03-24T22:02:18.323Z,15.10
2023-03-24T22:04:20.127Z,15.10
2023-03-24T22:06:22.788Z,15.10
2023-03-24T22:08:26.742Z,15.10
2023-03-24T22:10:29.779Z,15.10
2023-03-24T22:12:31.956Z,15.10
2023-03-24T22:14:33.669Z,15.10
2023-03-24T22:16:35.645Z,15.10
2023-03-24T22:18:37.352Z,15.10
2023-03-24T22:20:40.500Z,15.10
2023-03-24T22:22:42.402Z,15.10
2023-03-24T22:24:44.114Z,15.10
2023-03-24T22:26:45.865Z,15.10
2023-03-24T22:28:47.601Z,15.10
2023-03-24T22:30:49.432Z,15.10
2023-03-24T22:32:51.167Z,15.10
2023-03-24T22:34:53.239Z,15.10
2023-03-24T22:36:55.028Z,15.00
2023-03-24T22:38:57.064Z,15.00
2023-03-24T22:41:03.659Z,15.00
2023-03-24T22:43:05.396Z,15.00
2023-03-24T22:45:07.501Z,15.10
2023-03-24T22:47:09.219Z,15.00
2023-03-24T22:49:11.021Z,15.10
2023-03-24T22:51:16.905Z,15.00
2023-03-24T22:53:18.645Z,15.10
2023-03-24T22:55:20.563Z,15.10
2023-03-24T22:57:22.518Z,15.10
2023-03-24T22:59:25.028Z,15.00
2023-03-24T23:01:26.879Z,15.10
2023-03-24T23:03:28.649Z,15.00
2023-03-24T23:05:31.221Z,15.00
2023-03-24T23:07:33.172Z,15.00
2023-03-24T23:09:36.463Z,15.00
2023-03-24T23:11:38.355Z,15.00
2023-03-24T23:13:40.596Z,15.00
2023-03-24T23:15:42.965Z,15.00
2023-03-24T23:17:45.495Z,14.90
2023-03-24T23:19:47.196Z,14.90
2023-03-24T23:21:49.201Z,14.90
2023-03-24T23:23:51.157Z,14.80
2023-03-24T23:25:52.806Z,14.80
2023-03-24T23:27:54.506Z,14.80
2023-03-24T23:29:56.722Z,14.80
2023-03-24T23:31:58.577Z,14.70
2023-03-24T23:34:00.399Z,14.70
2023-03-24T23:36:02.126Z,14.60
2023-03-24T23:38:05.306Z,14.60
2023-03-24T23:40:15.654Z,14.60
2023-03-24T23:42:17.558Z,14.50
2023-03-24T23:44:19.910Z,14.50
2023-03-24T23:46:23.745Z,14.50
2023-03-24T23:48:25.983Z,14.50
2023-03-24T23:50:29.242Z,14.40
2023-03-24T23:52:30.874Z,14.40
2023-03-24T23:54:32.586Z,14.40
2023-03-24T23:56:38.524Z,14.40
2023-03-24T23:58:41.240Z,14.40
